sensor_id;sensor_type;location;lat;lon;timestamp;temperature;humidity
21787;DHT22;11055;50.870;4.316;2022-08-01T00:01:33;20.70;99.90
21787;DHT22;11055;50.870;4.316;2022-08-01T00:03:59;20.70;99.90
21787;DHT22;11055;50.870;4.316;2022-08-01T00:06:24;20.70;99.90
21787;DHT22;11055;50.870;4.316;2022-08-01T00:08:50;20.70;99.90
21787;DHT22;11055;50.870;4.316;2022-08-01T00:11:15;20.70;99.90
21787;DHT22;11055;50.870;4.316;2022-08-01T00:13:41;20.80;99.90
21787;DHT22;11055;50.870;4.316;2022-08-01T00:16:06;20.70;99.90
21787;DHT22;11055;50.870;4.316;2022-08-01T00:18:32;20.70;99.90
21787;DHT22;11055;50.870;4.316;2022-08-01T00:20:57;20.60;99.90
21787;DHT22;11055;50.870;4.316;2022-08-01T00:23:23;20.50;99.90
21787;DHT22;11055;50.870;4.316;2022-08-01T00:25:48;20.50;99.90
21787;DHT22;11055;50.870;4.316;2022-08-01T00:28:14;20.60;99.90
21787;DHT22;11055;50.870;4.316;2022-08-01T00:30:39;20.60;99.90
21787;DHT22;11055;50.870;4.316;2022-08-01T00:33:05;20.60;99.90
21787;DHT22;11055;50.870;4.316;2022-08-01T00:35:30;20.50;99.90
21787;DHT22;11055;50.870;4.316;2022-08-01T00:37:56;20.40;99.90
21787;DHT22;11055;50.870;4.316;2022-08-01T00:40:22;20.50;99.90
21787;DHT22;11055;50.870;4.316;2022-08-01T00:42:47;20.50;99.90
21787;DHT22;11055;50.870;4.316;2022-08-01T00:45:13;20.50;99.90
21787;DHT22;11055;50.870;4.316;2022-08-01T00:47:38;20.60;99.90
21787;DHT22;11055;50.870;4.316;2022-08-01T00:50:04;20.60;99.90
21787;DHT22;11055;50.870;4.316;2022-08-01T00:52:30;20.70;99.90
21787;DHT22;11055;50.870;4.316;2022-08-01T00:54:56;20.70;99.90
21787;DHT22;11055;50.870;4.316;2022-08-01T00:57:22;20.60;99.90
21787;DHT22;11055;50.870;4.316;2022-08-01T00:59:47;20.60;99.90
21787;DHT22;11055;50.870;4.316;2022-08-01T01:02:13;20.50;99.90
21787;DHT22;11055;50.870;4.316;2022-08-01T01:04:38;20.40;99.90
21787;DHT22;11055;50.870;4.316;2022-08-01T01:09:34;20.40;99.90
21787;DHT22;11055;50.870;4.316;2022-08-01T01:12:02;20.40;99.90
21787;DHT22;11055;50.870;4.316;2022-08-01T01:17:09;20.40;99.90
21787;DHT22;11055;50.870;4.316;2022-08-01T01:19:38;20.30;99.90
21787;DHT22;11055;50.870;4.316;2022-08-01T01:24:41;20.30;99.90
21787;DHT22;11055;50.870;4.316;2022-08-01T01:27:21;20.10;99.90
21787;DHT22;11055;50.870;4.316;2022-08-01T01:29:50;20.00;99.90
21787;DHT22;11055;50.870;4.316;2022-08-01T01:32:18;20.00;99.90
21787;DHT22;11055;50.870;4.316;2022-08-01T01:34:45;20.00;99.90
21787;DHT22;11055;50.870;4.316;2022-08-01T01:37:14;19.90;99.90
21787;DHT22;11055;50.870;4.316;2022-08-01T01:39:40;19.90;99.90
21787;DHT22;11055;50.870;4.316;2022-08-01T01:42:06;19.90;99.90
21787;DHT22;11055;50.870;4.316;2022-08-01T01:44:32;19.90;99.90
21787;DHT22;11055;50.870;4.316;2022-08-01T01:46:59;20.00;99.90
21787;DHT22;11055;50.870;4.316;2022-08-01T01:49:26;20.10;99.90
21787;DHT22;11055;50.870;4.316;2022-08-01T01:51:53;20.30;99.90
21787;DHT22;11055;50.870;4.316;2022-08-01T01:54:19;20.30;99.90
21787;DHT22;11055;50.870;4.316;2022-08-01T01:56:46;20.20;99.90
21787;DHT22;11055;50.870;4.316;2022-08-01T01:59:21;20.10;99.90
21787;DHT22;11055;50.870;4.316;2022-08-01T02:01:49;20.10;99.90
21787;DHT22;11055;50.870;4.316;2022-08-01T02:04:16;20.00;99.90
21787;DHT22;11055;50.870;4.316;2022-08-01T02:06:43;20.00;99.90
21787;DHT22;11055;50.870;4.316;2022-08-01T02:09:08;19.90;99.90
21787;DHT22;11055;50.870;4.316;2022-08-01T02:11:35;19.90;99.90
21787;DHT22;11055;50.870;4.316;2022-08-01T02:14:02;19.90;99.90
21787;DHT22;11055;50.870;4.316;2022-08-01T02:16:33;19.90;99.90
21787;DHT22;11055;50.870;4.316;2022-08-01T02:19:00;20.00;99.90
21787;DHT22;11055;50.870;4.316;2022-08-01T02:21:46;20.00;99.90
21787;DHT22;11055;50.870;4.316;2022-08-01T02:24:35;20.10;99.90
21787;DHT22;11055;50.870;4.316;2022-08-01T02:26:57;20.10;99.90
21787;DHT22;11055;50.870;4.316;2022-08-01T02:29:32;20.00;99.90
21787;DHT22;11055;50.870;4.316;2022-08-01T02:31:58;20.00;99.90
21787;DHT22;11055;50.870;4.316;2022-08-01T02:34:25;20.00;99.90
21787;DHT22;11055;50.870;4.316;2022-08-01T02:36:53;20.00;99.90
21787;DHT22;11055;50.870;4.316;2022-08-01T02:39:19;19.90;99.90
21787;DHT22;11055;50.870;4.316;2022-08-01T02:41:48;19.90;99.90
21787;DHT22;11055;50.870;4.316;2022-08-01T02:44:16;19.90;99.90
21787;DHT22;11055;50.870;4.316;2022-08-01T02:46:46;19.80;99.90
21787;DHT22;11055;50.870;4.316;2022-08-01T02:49:13;19.80;99.90
21787;DHT22;11055;50.870;4.316;2022-08-01T02:51:39;19.80;99.90
21787;DHT22;11055;50.870;4.316;2022-08-01T02:54:06;19.80;99.90
21787;DHT22;11055;50.870;4.316;2022-08-01T02:56:33;19.90;99.90
21787;DHT22;11055;50.870;4.316;2022-08-01T02:59:06;19.90;99.90
21787;DHT22;11055;50.870;4.316;2022-08-01T03:01:35;19.90;99.90
21787;DHT22;11055;50.870;4.316;2022-08-01T03:04:02;19.90;99.90
21787;DHT22;11055;50.870;4.316;2022-08-01T03:06:28;19.80;99.90
21787;DHT22;11055;50.870;4.316;2022-08-01T03:08:54;19.80;99.90
21787;DHT22;11055;50.870;4.316;2022-08-01T03:11:20;19.80;99.90
21787;DHT22;11055;50.870;4.316;2022-08-01T03:13:48;19.80;99.90
21787;DHT22;11055;50.870;4.316;2022-08-01T03:16:13;19.80;99.90
21787;DHT22;11055;50.870;4.316;2022-08-01T03:18:40;19.80;99.90
21787;DHT22;11055;50.870;4.316;2022-08-01T03:21:06;19.80;99.90
21787;DHT22;11055;50.870;4.316;2022-08-01T03:23:33;19.70;99.90
21787;DHT22;11055;50.870;4.316;2022-08-01T03:26:00;19.70;99.90
21787;DHT22;11055;50.870;4.316;2022-08-01T03:28:26;19.60;99.90
21787;DHT22;11055;50.870;4.316;2022-08-01T03:30:52;19.60;99.90
21787;DHT22;11055;50.870;4.316;2022-08-01T03:33:18;19.70;99.90
21787;DHT22;11055;50.870;4.316;2022-08-01T03:35:48;19.60;99.90
21787;DHT22;11055;50.870;4.316;2022-08-01T03:38:16;19.60;99.90
21787;DHT22;11055;50.870;4.316;2022-08-01T03:40:45;19.60;99.90
21787;DHT22;11055;50.870;4.316;2022-08-01T03:43:18;19.60;99.90
21787;DHT22;11055;50.870;4.316;2022-08-01T03:45:46;19.70;99.90
21787;DHT22;11055;50.870;4.316;2022-08-01T03:48:14;19.80;99.90
21787;DHT22;11055;50.870;4.316;2022-08-01T03:50:41;19.80;99.90
21787;DHT22;11055;50.870;4.316;2022-08-01T03:53:08;19.70;99.90
21787;DHT22;11055;50.870;4.316;2022-08-01T03:55:35;19.80;99.90
21787;DHT22;11055;50.870;4.316;2022-08-01T03:58:03;19.90;99.90
21787;DHT22;11055;50.870;4.316;2022-08-01T04:00:29;19.90;99.90
21787;DHT22;11055;50.870;4.316;2022-08-01T04:02:55;20.00;99.90
21787;DHT22;11055;50.870;4.316;2022-08-01T04:05:21;19.90;99.90
21787;DHT22;11055;50.870;4.316;2022-08-01T04:07:48;19.90;99.90
21787;DHT22;11055;50.870;4.316;2022-08-01T04:10:15;19.90;99.90
21787;DHT22;11055;50.870;4.316;2022-08-01T04:12:42;20.10;99.90
21787;DHT22;11055;50.870;4.316;2022-08-01T04:15:08;20.30;99.90
21787;DHT22;11055;50.870;4.316;2022-08-01T04:17:33;20.40;99.90
21787;DHT22;11055;50.870;4.316;2022-08-01T04:19:59;20.50;99.90
21787;DHT22;11055;50.870;4.316;2022-08-01T04:22:25;20.80;99.90
21787;DHT22;11055;50.870;4.316;2022-08-01T04:24:51;20.90;99.90
21787;DHT22;11055;50.870;4.316;2022-08-01T04:27:23;20.90;99.90
21787;DHT22;11055;50.870;4.316;2022-08-01T04:29:49;20.90;99.90
21787;DHT22;11055;50.870;4.316;2022-08-01T04:32:16;20.80;99.90
21787;DHT22;11055;50.870;4.316;2022-08-01T04:34:44;20.70;99.90
21787;DHT22;11055;50.870;4.316;2022-08-01T04:37:11;20.70;99.90
21787;DHT22;11055;50.870;4.316;2022-08-01T04:39:38;20.40;99.90
21787;DHT22;11055;50.870;4.316;2022-08-01T04:42:05;20.40;99.90
21787;DHT22;11055;50.870;4.316;2022-08-01T04:44:31;20.50;99.90
21787;DHT22;11055;50.870;4.316;2022-08-01T04:47:00;20.60;99.90
21787;DHT22;11055;50.870;4.316;2022-08-01T04:49:31;20.60;99.90
21787;DHT22;11055;50.870;4.316;2022-08-01T04:51:57;20.60;99.90
21787;DHT22;11055;50.870;4.316;2022-08-01T04:54:26;20.80;99.90
21787;DHT22;11055;50.870;4.316;2022-08-01T04:56:52;20.80;99.90
21787;DHT22;11055;50.870;4.316;2022-08-01T04:59:19;20.80;99.90
21787;DHT22;11055;50.870;4.316;2022-08-01T05:02:03;20.80;99.90
21787;DHT22;11055;50.870;4.316;2022-08-01T05:04:29;20.90;99.90
21787;DHT22;11055;50.870;4.316;2022-08-01T05:06:54;20.80;99.90
21787;DHT22;11055;50.870;4.316;2022-08-01T05:09:20;21.00;99.90
21787;DHT22;11055;50.870;4.316;2022-08-01T05:11:45;20.90;99.90
21787;DHT22;11055;50.870;4.316;2022-08-01T05:14:11;20.80;99.90
21787;DHT22;11055;50.870;4.316;2022-08-01T05:16:36;20.80;99.90
21787;DHT22;11055;50.870;4.316;2022-08-01T05:19:02;20.80;99.90
21787;DHT22;11055;50.870;4.316;2022-08-01T05:21:27;20.70;99.90
21787;DHT22;11055;50.870;4.316;2022-08-01T05:23:53;20.70;99.90
21787;DHT22;11055;50.870;4.316;2022-08-01T05:26:18;20.70;99.90
21787;DHT22;11055;50.870;4.316;2022-08-01T05:28:44;20.70;99.90
21787;DHT22;11055;50.870;4.316;2022-08-01T05:31:09;20.70;99.90
21787;DHT22;11055;50.870;4.316;2022-08-01T05:33:35;20.70;99.90
21787;DHT22;11055;50.870;4.316;2022-08-01T05:36:01;20.70;99.90
21787;DHT22;11055;50.870;4.316;2022-08-01T05:38:26;20.70;99.90
21787;DHT22;11055;50.870;4.316;2022-08-01T05:40:52;20.60;99.90
21787;DHT22;11055;50.870;4.316;2022-08-01T05:43:17;20.50;99.90
21787;DHT22;11055;50.870;4.316;2022-08-01T05:45:43;20.50;99.90
21787;DHT22;11055;50.870;4.316;2022-08-01T05:48:09;20.40;99.90
21787;DHT22;11055;50.870;4.316;2022-08-01T05:50:35;20.40;99.90
21787;DHT22;11055;50.870;4.316;2022-08-01T05:53:00;20.50;99.90
21787;DHT22;11055;50.870;4.316;2022-08-01T05:55:26;20.60;99.90
21787;DHT22;11055;50.870;4.316;2022-08-01T05:57:51;20.50;99.90
21787;DHT22;11055;50.870;4.316;2022-08-01T06:00:17;20.60;99.90
21787;DHT22;11055;50.870;4.316;2022-08-01T06:02:42;20.60;99.90
21787;DHT22;11055;50.870;4.316;2022-08-01T06:05:09;20.60;99.90
21787;DHT22;11055;50.870;4.316;2022-08-01T06:07:34;20.60;99.90
21787;DHT22;11055;50.870;4.316;2022-08-01T06:10:00;20.70;99.90
21787;DHT22;11055;50.870;4.316;2022-08-01T06:12:25;20.80;99.90
21787;DHT22;11055;50.870;4.316;2022-08-01T06:14:51;21.00;99.90
21787;DHT22;11055;50.870;4.316;2022-08-01T06:17:16;21.00;99.90
21787;DHT22;11055;50.870;4.316;2022-08-01T06:19:42;21.00;99.90
21787;DHT22;11055;50.870;4.316;2022-08-01T06:22:07;21.00;99.90
21787;DHT22;11055;50.870;4.316;2022-08-01T06:24:33;21.10;99.90
21787;DHT22;11055;50.870;4.316;2022-08-01T06:26:58;21.10;99.90
21787;DHT22;11055;50.870;4.316;2022-08-01T06:29:24;21.10;99.90
21787;DHT22;11055;50.870;4.316;2022-08-01T06:31:49;21.10;99.90
21787;DHT22;11055;50.870;4.316;2022-08-01T06:34:15;21.10;99.90
21787;DHT22;11055;50.870;4.316;2022-08-01T06:36:40;21.20;99.90
21787;DHT22;11055;50.870;4.316;2022-08-01T06:39:06;21.20;99.90
21787;DHT22;11055;50.870;4.316;2022-08-01T06:41:31;21.00;99.90
21787;DHT22;11055;50.870;4.316;2022-08-01T06:43:57;21.00;99.90
21787;DHT22;11055;50.870;4.316;2022-08-01T06:46:25;21.00;99.90
21787;DHT22;11055;50.870;4.316;2022-08-01T06:48:50;21.00;99.90
21787;DHT22;11055;50.870;4.316;2022-08-01T06:51:16;20.90;99.90
21787;DHT22;11055;50.870;4.316;2022-08-01T06:53:44;20.80;99.90
21787;DHT22;11055;50.870;4.316;2022-08-01T06:56:10;20.60;99.90
21787;DHT22;11055;50.870;4.316;2022-08-01T06:58:36;20.40;99.90
21787;DHT22;11055;50.870;4.316;2022-08-01T07:01:02;20.30;99.90
21787;DHT22;11055;50.870;4.316;2022-08-01T07:03:29;20.50;99.90
21787;DHT22;11055;50.870;4.316;2022-08-01T07:05:55;20.60;99.90
21787;DHT22;11055;50.870;4.316;2022-08-01T07:08:20;20.60;99.90
21787;DHT22;11055;50.870;4.316;2022-08-01T07:10:46;20.60;99.90
21787;DHT22;11055;50.870;4.316;2022-08-01T07:13:11;20.60;99.90
21787;DHT22;11055;50.870;4.316;2022-08-01T07:15:37;20.70;99.90
21787;DHT22;11055;50.870;4.316;2022-08-01T07:18:03;20.60;99.90
21787;DHT22;11055;50.870;4.316;2022-08-01T07:20:29;20.50;99.90
21787;DHT22;11055;50.870;4.316;2022-08-01T07:22:55;20.50;99.90
21787;DHT22;11055;50.870;4.316;2022-08-01T07:25:20;20.50;99.90
21787;DHT22;11055;50.870;4.316;2022-08-01T07:27:46;20.60;99.90
21787;DHT22;11055;50.870;4.316;2022-08-01T07:30:12;20.70;99.90
21787;DHT22;11055;50.870;4.316;2022-08-01T07:32:37;20.70;99.90
21787;DHT22;11055;50.870;4.316;2022-08-01T07:35:03;20.80;99.90
21787;DHT22;11055;50.870;4.316;2022-08-01T07:37:28;20.80;99.90
21787;DHT22;11055;50.870;4.316;2022-08-01T07:39:54;20.90;99.90
21787;DHT22;11055;50.870;4.316;2022-08-01T07:42:20;21.00;99.90
21787;DHT22;11055;50.870;4.316;2022-08-01T07:44:45;21.30;99.90
21787;DHT22;11055;50.870;4.316;2022-08-01T07:47:10;21.50;99.90
21787;DHT22;11055;50.870;4.316;2022-08-01T07:49:36;21.40;99.90
21787;DHT22;11055;50.870;4.316;2022-08-01T07:52:02;21.30;99.90
21787;DHT22;11055;50.870;4.316;2022-08-01T07:54:28;21.40;99.90
21787;DHT22;11055;50.870;4.316;2022-08-01T07:56:54;21.60;99.90
21787;DHT22;11055;50.870;4.316;2022-08-01T07:59:20;21.60;99.90
21787;DHT22;11055;50.870;4.316;2022-08-01T08:01:51;21.40;99.90
21787;DHT22;11055;50.870;4.316;2022-08-01T08:04:17;21.50;99.90
21787;DHT22;11055;50.870;4.316;2022-08-01T08:06:42;21.40;99.90
21787;DHT22;11055;50.870;4.316;2022-08-01T08:09:08;21.20;99.90
21787;DHT22;11055;50.870;4.316;2022-08-01T08:11:33;21.00;99.90
21787;DHT22;11055;50.870;4.316;2022-08-01T08:13:59;20.90;99.90
21787;DHT22;11055;50.870;4.316;2022-08-01T08:16:25;21.10;99.90
21787;DHT22;11055;50.870;4.316;2022-08-01T08:18:51;21.20;99.90
21787;DHT22;11055;50.870;4.316;2022-08-01T08:21:17;21.40;99.90
21787;DHT22;11055;50.870;4.316;2022-08-01T08:23:42;21.50;99.90
21787;DHT22;11055;50.870;4.316;2022-08-01T08:26:27;21.60;99.90
21787;DHT22;11055;50.870;4.316;2022-08-01T08:28:52;21.80;99.90
21787;DHT22;11055;50.870;4.316;2022-08-01T08:31:18;22.10;99.90
21787;DHT22;11055;50.870;4.316;2022-08-01T08:33:43;22.30;99.90
21787;DHT22;11055;50.870;4.316;2022-08-01T08:36:09;22.50;99.90
21787;DHT22;11055;50.870;4.316;2022-08-01T08:38:36;22.50;99.90
21787;DHT22;11055;50.870;4.316;2022-08-01T08:41:01;22.40;99.90
21787;DHT22;11055;50.870;4.316;2022-08-01T08:43:27;22.40;99.90
21787;DHT22;11055;50.870;4.316;2022-08-01T08:45:53;22.20;99.90
21787;DHT22;11055;50.870;4.316;2022-08-01T08:48:18;22.00;99.90
21787;DHT22;11055;50.870;4.316;2022-08-01T08:50:44;21.90;99.90
21787;DHT22;11055;50.870;4.316;2022-08-01T08:53:10;21.90;99.90
21787;DHT22;11055;50.870;4.316;2022-08-01T08:55:37;21.90;99.90
21787;DHT22;11055;50.870;4.316;2022-08-01T08:58:03;21.90;99.90
21787;DHT22;11055;50.870;4.316;2022-08-01T09:00:31;21.90;99.90
21787;DHT22;11055;50.870;4.316;2022-08-01T09:02:57;21.80;99.90
21787;DHT22;11055;50.870;4.316;2022-08-01T09:05:23;21.80;99.90
21787;DHT22;11055;50.870;4.316;2022-08-01T09:07:51;21.90;99.90
21787;DHT22;11055;50.870;4.316;2022-08-01T09:10:17;22.00;99.90
21787;DHT22;11055;50.870;4.316;2022-08-01T09:13:01;22.10;99.90
21787;DHT22;11055;50.870;4.316;2022-08-01T09:18:05;22.20;99.90
21787;DHT22;11055;50.870;4.316;2022-08-01T09:20:31;22.20;99.90
21787;DHT22;11055;50.870;4.316;2022-08-01T09:22:57;22.40;99.90
21787;DHT22;11055;50.870;4.316;2022-08-01T09:25:22;22.50;99.90
21787;DHT22;11055;50.870;4.316;2022-08-01T09:27:48;22.70;99.90
21787;DHT22;11055;50.870;4.316;2022-08-01T09:30:26;22.90;99.90
21787;DHT22;11055;50.870;4.316;2022-08-01T09:32:56;23.10;99.90
21787;DHT22;11055;50.870;4.316;2022-08-01T09:35:26;23.30;99.90
21787;DHT22;11055;50.870;4.316;2022-08-01T09:37:51;23.40;99.90
21787;DHT22;11055;50.870;4.316;2022-08-01T09:40:21;23.60;99.90
21787;DHT22;11055;50.870;4.316;2022-08-01T09:42:46;23.60;99.90
21787;DHT22;11055;50.870;4.316;2022-08-01T09:45:32;23.70;99.90
21787;DHT22;11055;50.870;4.316;2022-08-01T09:48:03;23.50;99.90
21787;DHT22;11055;50.870;4.316;2022-08-01T09:50:38;23.30;99.90
21787;DHT22;11055;50.870;4.316;2022-08-01T09:53:04;23.50;99.90
21787;DHT22;11055;50.870;4.316;2022-08-01T09:55:29;23.40;99.90
21787;DHT22;11055;50.870;4.316;2022-08-01T09:57:55;23.30;99.90
21787;DHT22;11055;50.870;4.316;2022-08-01T10:00:21;23.20;99.90
21787;DHT22;11055;50.870;4.316;2022-08-01T10:02:46;23.40;99.90
21787;DHT22;11055;50.870;4.316;2022-08-01T10:05:12;23.50;99.90
21787;DHT22;11055;50.870;4.316;2022-08-01T10:10:21;23.80;99.90
21787;DHT22;11055;50.870;4.316;2022-08-01T10:12:47;24.10;99.90
21787;DHT22;11055;50.870;4.316;2022-08-01T10:15:17;24.20;99.90
21787;DHT22;11055;50.870;4.316;2022-08-01T10:17:49;24.10;99.90
21787;DHT22;11055;50.870;4.316;2022-08-01T10:20:18;24.00;99.90
21787;DHT22;11055;50.870;4.316;2022-08-01T10:22:45;23.80;99.90
21787;DHT22;11055;50.870;4.316;2022-08-01T10:25:11;23.70;99.90
21787;DHT22;11055;50.870;4.316;2022-08-01T10:27:38;23.80;99.90
21787;DHT22;11055;50.870;4.316;2022-08-01T10:30:04;23.60;99.90
21787;DHT22;11055;50.870;4.316;2022-08-01T10:32:31;23.50;99.90
21787;DHT22;11055;50.870;4.316;2022-08-01T10:34:57;23.60;99.90
21787;DHT22;11055;50.870;4.316;2022-08-01T10:37:23;23.70;99.90
21787;DHT22;11055;50.870;4.316;2022-08-01T10:39:50;23.80;99.90
21787;DHT22;11055;50.870;4.316;2022-08-01T10:42:16;23.80;99.90
21787;DHT22;11055;50.870;4.316;2022-08-01T10:44:42;23.90;99.90
21787;DHT22;11055;50.870;4.316;2022-08-01T10:47:12;24.10;99.90
21787;DHT22;11055;50.870;4.316;2022-08-01T10:49:45;24.10;99.90
21787;DHT22;11055;50.870;4.316;2022-08-01T10:52:16;24.00;99.90
21787;DHT22;11055;50.870;4.316;2022-08-01T10:54:41;24.20;99.90
21787;DHT22;11055;50.870;4.316;2022-08-01T10:57:07;24.20;99.90
21787;DHT22;11055;50.870;4.316;2022-08-01T10:59:33;23.90;99.90
21787;DHT22;11055;50.870;4.316;2022-08-01T11:02:04;24.00;99.90
21787;DHT22;11055;50.870;4.316;2022-08-01T11:04:34;24.20;99.90
21787;DHT22;11055;50.870;4.316;2022-08-01T11:07:06;24.40;99.90
21787;DHT22;11055;50.870;4.316;2022-08-01T11:09:39;24.50;99.90
21787;DHT22;11055;50.870;4.316;2022-08-01T11:12:06;24.70;99.90
21787;DHT22;11055;50.870;4.316;2022-08-01T11:15:15;24.60;99.90
21787;DHT22;11055;50.870;4.316;2022-08-01T11:17:29;24.70;99.90
21787;DHT22;11055;50.870;4.316;2022-08-01T11:22:30;24.80;99.90
21787;DHT22;11055;50.870;4.316;2022-08-01T11:24:56;24.60;99.90
21787;DHT22;11055;50.870;4.316;2022-08-01T11:27:31;24.80;99.90
21787;DHT22;11055;50.870;4.316;2022-08-01T11:35:15;25.10;99.90
21787;DHT22;11055;50.870;4.316;2022-08-01T11:37:41;25.30;99.90
21787;DHT22;11055;50.870;4.316;2022-08-01T11:42:44;25.50;99.90
21787;DHT22;11055;50.870;4.316;2022-08-01T11:45:10;25.70;99.90
21787;DHT22;11055;50.870;4.316;2022-08-01T11:47:43;25.80;99.90
21787;DHT22;11055;50.870;4.316;2022-08-01T11:50:29;26.00;99.90
21787;DHT22;11055;50.870;4.316;2022-08-01T11:52:58;26.10;99.90
21787;DHT22;11055;50.870;4.316;2022-08-01T11:55:24;26.10;99.90
21787;DHT22;11055;50.870;4.316;2022-08-01T11:57:49;26.10;99.90
21787;DHT22;11055;50.870;4.316;2022-08-01T12:00:16;26.10;99.90
21787;DHT22;11055;50.870;4.316;2022-08-01T12:02:42;26.20;99.90
21787;DHT22;11055;50.870;4.316;2022-08-01T12:05:09;26.10;99.90
21787;DHT22;11055;50.870;4.316;2022-08-01T12:07:39;26.10;99.90
21787;DHT22;11055;50.870;4.316;2022-08-01T12:10:06;26.40;99.90
21787;DHT22;11055;50.870;4.316;2022-08-01T12:12:33;26.60;99.90
21787;DHT22;11055;50.870;4.316;2022-08-01T12:14:59;26.10;99.90
21787;DHT22;11055;50.870;4.316;2022-08-01T12:17:29;26.00;99.90
21787;DHT22;11055;50.870;4.316;2022-08-01T12:19:54;26.00;99.90
21787;DHT22;11055;50.870;4.316;2022-08-01T12:22:21;26.10;99.90
21787;DHT22;11055;50.870;4.316;2022-08-01T12:24:47;26.20;99.90
21787;DHT22;11055;50.870;4.316;2022-08-01T12:27:12;26.20;99.90
21787;DHT22;11055;50.870;4.316;2022-08-01T12:29:48;26.40;99.90
21787;DHT22;11055;50.870;4.316;2022-08-01T12:32:21;26.10;99.90
21787;DHT22;11055;50.870;4.316;2022-08-01T12:34:47;26.10;99.90
21787;DHT22;11055;50.870;4.316;2022-08-01T12:37:12;26.00;99.90
21787;DHT22;11055;50.870;4.316;2022-08-01T12:39:38;26.20;99.90
21787;DHT22;11055;50.870;4.316;2022-08-01T12:42:07;26.40;99.90
21787;DHT22;11055;50.870;4.316;2022-08-01T12:44:33;26.40;99.90
21787;DHT22;11055;50.870;4.316;2022-08-01T12:47:00;26.70;99.90
21787;DHT22;11055;50.870;4.316;2022-08-01T12:49:25;26.80;99.90
21787;DHT22;11055;50.870;4.316;2022-08-01T12:51:52;26.90;99.90
21787;DHT22;11055;50.870;4.316;2022-08-01T12:54:18;26.90;99.90
21787;DHT22;11055;50.870;4.316;2022-08-01T12:56:44;26.70;99.90
21787;DHT22;11055;50.870;4.316;2022-08-01T12:59:23;26.70;99.90
21787;DHT22;11055;50.870;4.316;2022-08-01T13:01:53;26.50;99.90
21787;DHT22;11055;50.870;4.316;2022-08-01T13:04:19;26.60;99.90
21787;DHT22;11055;50.870;4.316;2022-08-01T13:06:45;26.40;99.90
21787;DHT22;11055;50.870;4.316;2022-08-01T13:09:11;26.60;99.90
21787;DHT22;11055;50.870;4.316;2022-08-01T13:11:38;26.90;99.90
21787;DHT22;11055;50.870;4.316;2022-08-01T13:14:04;27.00;99.90
21787;DHT22;11055;50.870;4.316;2022-08-01T13:16:29;26.90;99.90
21787;DHT22;11055;50.870;4.316;2022-08-01T13:18:56;26.80;99.90
21787;DHT22;11055;50.870;4.316;2022-08-01T13:21:22;26.70;99.90
21787;DHT22;11055;50.870;4.316;2022-08-01T13:26:45;26.30;99.90
21787;DHT22;11055;50.870;4.316;2022-08-01T13:29:15;26.30;99.90
21787;DHT22;11055;50.870;4.316;2022-08-01T13:31:41;26.10;99.90
21787;DHT22;11055;50.870;4.316;2022-08-01T13:34:07;26.00;99.90
21787;DHT22;11055;50.870;4.316;2022-08-01T13:36:34;26.00;99.90
21787;DHT22;11055;50.870;4.316;2022-08-01T13:39:00;25.90;99.90
21787;DHT22;11055;50.870;4.316;2022-08-01T13:41:45;25.80;99.90
21787;DHT22;11055;50.870;4.316;2022-08-01T13:44:10;26.00;99.90
21787;DHT22;11055;50.870;4.316;2022-08-01T13:46:37;26.00;99.90
21787;DHT22;11055;50.870;4.316;2022-08-01T13:49:03;26.00;99.90
21787;DHT22;11055;50.870;4.316;2022-08-01T13:51:28;26.20;99.90
21787;DHT22;11055;50.870;4.316;2022-08-01T13:53:54;26.30;99.90
21787;DHT22;11055;50.870;4.316;2022-08-01T13:56:19;26.40;99.50
21787;DHT22;11055;50.870;4.316;2022-08-01T13:58:45;26.20;99.80
21787;DHT22;11055;50.870;4.316;2022-08-01T14:01:11;26.20;99.40
21787;DHT22;11055;50.870;4.316;2022-08-01T14:03:36;26.20;99.00
21787;DHT22;11055;50.870;4.316;2022-08-01T14:06:02;26.30;98.90
21787;DHT22;11055;50.870;4.316;2022-08-01T14:08:27;26.40;98.00
21787;DHT22;11055;50.870;4.316;2022-08-01T14:10:53;26.20;98.10
21787;DHT22;11055;50.870;4.316;2022-08-01T14:13:22;26.30;98.50
21787;DHT22;11055;50.870;4.316;2022-08-01T14:15:48;26.30;98.80
21787;DHT22;11055;50.870;4.316;2022-08-01T14:18:15;26.30;97.60
21787;DHT22;11055;50.870;4.316;2022-08-01T14:20:41;26.30;98.30
21787;DHT22;11055;50.870;4.316;2022-08-01T14:23:06;26.30;98.40
21787;DHT22;11055;50.870;4.316;2022-08-01T14:25:32;26.10;99.00
21787;DHT22;11055;50.870;4.316;2022-08-01T14:27:57;26.10;99.50
21787;DHT22;11055;50.870;4.316;2022-08-01T14:30:23;26.30;99.80
21787;DHT22;11055;50.870;4.316;2022-08-01T14:32:49;26.40;98.40
21787;DHT22;11055;50.870;4.316;2022-08-01T14:35:14;26.50;98.10
21787;DHT22;11055;50.870;4.316;2022-08-01T14:37:40;26.40;97.00
21787;DHT22;11055;50.870;4.316;2022-08-01T14:40:05;26.60;97.80
21787;DHT22;11055;50.870;4.316;2022-08-01T14:42:34;26.60;97.60
21787;DHT22;11055;50.870;4.316;2022-08-01T14:45:00;26.60;97.50
21787;DHT22;11055;50.870;4.316;2022-08-01T14:47:25;26.40;97.20
21787;DHT22;11055;50.870;4.316;2022-08-01T14:49:51;26.30;98.10
21787;DHT22;11055;50.870;4.316;2022-08-01T14:52:16;26.30;97.40
21787;DHT22;11055;50.870;4.316;2022-08-01T14:54:42;26.40;97.00
21787;DHT22;11055;50.870;4.316;2022-08-01T14:57:08;26.40;96.70
21787;DHT22;11055;50.870;4.316;2022-08-01T14:59:33;26.40;96.70
21787;DHT22;11055;50.870;4.316;2022-08-01T15:01:59;26.40;96.30
21787;DHT22;11055;50.870;4.316;2022-08-01T15:04:24;26.20;96.40
21787;DHT22;11055;50.870;4.316;2022-08-01T15:06:50;26.20;96.10
21787;DHT22;11055;50.870;4.316;2022-08-01T15:09:15;26.00;96.30
21787;DHT22;11055;50.870;4.316;2022-08-01T15:11:41;26.00;96.50
21787;DHT22;11055;50.870;4.316;2022-08-01T15:14:07;26.00;95.70
21787;DHT22;11055;50.870;4.316;2022-08-01T15:16:51;26.00;95.90
21787;DHT22;11055;50.870;4.316;2022-08-01T15:19:16;25.90;96.40
21787;DHT22;11055;50.870;4.316;2022-08-01T15:21:42;25.90;96.80
21787;DHT22;11055;50.870;4.316;2022-08-01T15:24:08;25.90;96.60
21787;DHT22;11055;50.870;4.316;2022-08-01T15:26:34;26.00;96.60
21787;DHT22;11055;50.870;4.316;2022-08-01T15:29:00;26.10;96.20
21787;DHT22;11055;50.870;4.316;2022-08-01T15:31:26;26.10;96.40
21787;DHT22;11055;50.870;4.316;2022-08-01T15:33:51;26.00;96.30
21787;DHT22;11055;50.870;4.316;2022-08-01T15:36:17;26.20;97.00
21787;DHT22;11055;50.870;4.316;2022-08-01T15:38:42;26.00;96.10
21787;DHT22;11055;50.870;4.316;2022-08-01T15:41:08;26.10;96.70
21787;DHT22;11055;50.870;4.316;2022-08-01T15:43:33;26.00;96.10
21787;DHT22;11055;50.870;4.316;2022-08-01T15:45:59;26.10;95.80
21787;DHT22;11055;50.870;4.316;2022-08-01T15:48:25;26.20;95.10
21787;DHT22;11055;50.870;4.316;2022-08-01T15:50:50;26.20;94.70
21787;DHT22;11055;50.870;4.316;2022-08-01T15:53:16;26.10;94.90
21787;DHT22;11055;50.870;4.316;2022-08-01T15:55:42;26.10;95.10